createdAt,value
2023-03-05T00:00:16.174Z,8.40
2023-03-05T00:01:16.203Z,10.10
2023-03-05T00:02:16.168Z,9.90
2023-03-05T00:03:16.357Z,8.70
2023-03-05T00:04:16.137Z,5.70
2023-03-05T00:05:16.148Z,7.10
2023-03-05T00:06:16.113Z,5.80
2023-03-05T00:07:16.126Z,9.40
2023-03-05T00:08:16.083Z,7.60
2023-03-05T00:09:16.096Z,8.00
2023-03-05T00:10:16.070Z,5.60
2023-03-05T00:11:16.074Z,5.00
2023-03-05T00:12:16.035Z,4.80
2023-03-05T00:13:16.080Z,4.40
2023-03-05T00:14:16.020Z,8.30
2023-03-05T00:15:16.034Z,5.80
2023-03-05T00:16:16.026Z,6.80
2023-03-05T00:17:16.025Z,7.50
2023-03-05T00:18:15.989Z,8.30
2023-03-05T00:19:16.025Z,5.00
2023-03-05T00:20:15.954Z,4.40
2023-03-05T00:21:15.959Z,5.00
2023-03-05T00:22:16.003Z,5.00
2023-03-05T00:23:15.954Z,6.20
2023-03-05T00:24:15.930Z,7.70
2023-03-05T00:25:15.942Z,5.00
2023-03-05T00:26:15.895Z,6.40
2023-03-05T00:27:15.916Z,5.30
2023-03-05T00:28:15.870Z,4.90
2023-03-05T00:29:15.863Z,4.60
2023-03-05T00:30:15.840Z,7.70
2023-03-05T00:31:15.936Z,4.90
2023-03-05T00:32:15.863Z,6.50
2023-03-05T00:33:15.832Z,4.70
2023-03-05T00:34:15.799Z,6.10
2023-03-05T00:35:15.803Z,4.40
2023-03-05T00:36:15.770Z,7.10
2023-03-05T00:37:15.795Z,6.60
2023-03-05T00:38:15.752Z,6.70
2023-03-05T00:39:15.754Z,7.00
2023-03-05T00:40:15.730Z,6.80
2023-03-05T00:41:15.752Z,6.10
2023-03-05T00:42:15.700Z,4.20
2023-03-05T00:43:15.734Z,5.70
2023-03-05T00:44:15.694Z,6.30
2023-03-05T00:45:15.703Z,5.20
2023-03-05T00:46:15.684Z,5.80
2023-03-05T00:47:15.670Z,6.80
2023-03-05T00:48:15.638Z,4.90
2023-03-05T00:49:15.666Z,6.10
2023-03-05T00:50:15.606Z,5.40
2023-03-05T00:51:15.620Z,4.40
2023-03-05T00:52:15.639Z,8.60
2023-03-05T00:53:15.601Z,4.90
2023-03-05T00:54:15.573Z,5.90
2023-03-05T00:55:15.585Z,5.60
2023-03-05T00:56:15.534Z,5.70
2023-03-05T00:57:15.548Z,7.60
2023-03-05T00:58:15.759Z,5.40
2023-03-05T00:59:15.520Z,8.60
2023-03-05T01:00:15.490Z,5.40
2023-03-05T01:01:15.497Z,5.40
2023-03-05T01:02:15.475Z,3.50
2023-03-05T01:03:15.476Z,4.70
2023-03-05T01:04:15.488Z,3.10
2023-03-05T01:05:15.521Z,6.10
2023-03-05T01:06:15.421Z,3.80
2023-03-05T01:07:15.440Z,4.10
2023-03-05T01:08:15.395Z,2.30
2023-03-05T01:09:15.386Z,5.30
2023-03-05T01:10:15.345Z,4.80
2023-03-05T01:11:15.470Z,5.40
2023-03-05T01:12:15.337Z,3.50
2023-03-05T01:13:15.394Z,3.20
2023-03-05T01:14:15.318Z,4.40
2023-03-05T01:15:15.334Z,4.00
2023-03-05T01:16:15.377Z,3.80
2023-03-05T01:17:15.293Z,6.90
2023-03-05T01:18:15.272Z,4.10
2023-03-05T01:19:15.267Z,4.60
2023-03-05T01:20:15.233Z,3.80
2023-03-05T01:21:15.263Z,3.20
2023-03-05T01:22:15.243Z,3.60
2023-03-05T01:23:15.276Z,4.30
2023-03-05T01:24:15.176Z,3.80
2023-03-05T01:25:15.211Z,2.70
2023-03-05T01:26:15.166Z,4.30
2023-03-05T01:27:15.196Z,3.10
2023-03-05T01:28:15.154Z,4.60
2023-03-05T01:29:15.221Z,3.30
2023-03-05T01:30:15.137Z,4.70
2023-03-05T01:31:15.166Z,3.30
2023-03-05T01:32:15.127Z,4.00
2023-03-05T01:33:15.109Z,3.20
2023-03-05T01:34:15.063Z,4.80
2023-03-05T01:35:15.102Z,5.00
2023-03-05T01:36:15.040Z,4.00
2023-03-05T01:37:15.074Z,4.30
2023-03-05T01:38:15.020Z,4.40
2023-03-05T01:39:15.059Z,4.30
2023-03-05T01:40:14.992Z,3.60
2023-03-05T01:41:15.027Z,4.60
2023-03-05T01:42:15.001Z,3.50
2023-03-05T01:43:14.997Z,3.90
2023-03-05T01:44:14.961Z,4.50
2023-03-05T01:45:15.012Z,4.00
2023-03-05T01:46:15.147Z,4.50
2023-03-05T01:47:14.959Z,3.70
2023-03-05T01:48:14.910Z,4.00
2023-03-05T01:49:14.935Z,2.50
2023-03-05T01:50:14.889Z,4.50
2023-03-05T01:51:14.897Z,4.00
2023-03-05T01:52:14.864Z,3.00
2023-03-05T01:53:14.916Z,3.40
2023-03-05T01:54:14.848Z,4.00
2023-03-05T01:55:14.894Z,3.50
2023-03-05T01:56:14.824Z,4.50
2023-03-05T01:57:14.835Z,4.60
2023-03-05T01:58:14.832Z,3.50
2023-03-05T01:59:14.937Z,3.40
2023-03-05T02:00:14.771Z,2.80
2023-03-05T02:01:14.853Z,4.00
2023-03-05T02:02:14.755Z,2.60
2023-03-05T02:03:14.773Z,4.90
2023-03-05T02:04:14.739Z,2.20
2023-03-05T02:05:14.742Z,5.80
2023-03-05T02:06:14.701Z,5.70
2023-03-05T02:07:14.713Z,5.10
2023-03-05T02:08:14.686Z,4.30
2023-03-05T02:09:14.709Z,4.50
2023-03-05T02:10:14.655Z,4.30
2023-03-05T02:11:14.672Z,3.00
2023-03-05T02:12:14.634Z,3.30
2023-03-05T02:13:14.676Z,3.80
2023-03-05T02:14:14.669Z,5.90
2023-03-05T02:15:14.625Z,3.10
2023-03-05T02:16:14.612Z,4.20
2023-03-05T02:17:14.621Z,4.00
2023-03-05T02:18:14.567Z,4.00
2023-03-05T02:19:14.599Z,2.90
2023-03-05T02:20:14.874Z,3.90
2023-03-05T02:21:14.567Z,2.50
2023-03-05T02:22:14.515Z,2.90
2023-03-05T02:23:14.596Z,3.30
2023-03-05T02:24:14.503Z,2.00
2023-03-05T02:25:14.513Z,1.60
2023-03-05T02:26:14.510Z,4.00
2023-03-05T02:27:14.485Z,2.30
2023-03-05T02:28:14.460Z,2.50
2023-03-05T02:29:14.478Z,4.20
2023-03-05T02:30:14.487Z,3.00
2023-03-05T02:31:14.457Z,3.80
2023-03-05T02:32:14.542Z,2.40
2023-03-05T02:33:14.423Z,2.20
2023-03-05T02:34:14.389Z,3.00
2023-03-05T02:35:14.418Z,2.40
2023-03-05T02:36:14.364Z,4.10
2023-03-05T02:37:14.364Z,2.60
2023-03-05T02:38:14.353Z,9.00
2023-03-05T02:39:14.365Z,1.70
2023-03-05T02:40:14.338Z,3.30
2023-03-05T02:41:14.325Z,4.30
2023-03-05T02:42:14.299Z,3.50
2023-03-05T02:43:14.305Z,3.70
2023-03-05T02:44:14.289Z,5.50
2023-03-05T02:45:14.303Z,3.10
2023-03-05T02:46:14.358Z,2.60
2023-03-05T02:47:14.272Z,3.90
2023-03-05T02:48:14.352Z,2.00
2023-03-05T02:49:14.270Z,2.30
2023-03-05T02:50:14.225Z,2.00
2023-03-05T02:51:14.229Z,2.60
2023-03-05T02:52:14.175Z,3.60
2023-03-05T02:53:14.193Z,2.40
2023-03-05T02:54:14.176Z,2.30
2023-03-05T02:55:14.171Z,3.30
2023-03-05T02:56:14.156Z,2.70
2023-03-05T02:57:14.160Z,5.50
2023-03-05T02:58:14.123Z,2.80
2023-03-05T02:59:14.145Z,2.40
2023-03-05T03:00:14.110Z,2.00
2023-03-05T03:01:14.201Z,4.30
2023-03-05T03:02:14.103Z,2.10
2023-03-05T03:03:14.144Z,3.20
2023-03-05T03:04:14.063Z,2.90
2023-03-05T03:05:14.076Z,4.00
2023-03-05T03:06:14.273Z,1.60
2023-03-05T03:07:14.048Z,2.50
2023-03-05T03:08:14.004Z,4.30
2023-03-05T03:09:14.032Z,4.00
2023-03-05T03:10:13.986Z,5.50
2023-03-05T03:11:14.005Z,2.70
2023-03-05T03:12:13.961Z,1.80
2023-03-05T03:13:14.226Z,3.60
2023-03-05T03:14:13.943Z,4.50
2023-03-05T03:15:13.977Z,2.20
2023-03-05T03:16:13.924Z,3.40
2023-03-05T03:17:13.929Z,3.80
2023-03-05T03:18:13.887Z,2.60
2023-03-05T03:19:13.904Z,4.90
2023-03-05T03:20:13.882Z,3.00
2023-03-05T03:21:13.900Z,4.20
2023-03-05T03:22:13.838Z,3.30
2023-03-05T03:23:13.872Z,4.00
2023-03-05T03:24:13.844Z,3.40
2023-03-05T03:25:13.832Z,5.60
2023-03-05T03:26:13.812Z,3.50
2023-03-05T03:27:13.833Z,6.80
2023-03-05T03:28:13.807Z,3.40
2023-03-05T03:29:13.796Z,2.10
2023-03-05T03:30:13.782Z,2.50
2023-03-05T03:31:13.809Z,2.90
2023-03-05T03:32:13.756Z,4.30
2023-03-05T03:33:13.792Z,3.50
2023-03-05T03:34:13.716Z,5.30
2023-03-05T03:35:13.761Z,4.60
2023-03-05T03:36:13.688Z,4.60
2023-03-05T03:37:13.735Z,3.80
2023-03-05T03:38:13.676Z,8.90
2023-03-05T03:39:13.736Z,3.90
2023-03-05T03:40:13.652Z,5.00
2023-03-05T03:41:13.657Z,5.70
2023-03-05T03:42:13.636Z,7.00
2023-03-05T03:43:13.640Z,6.70
2023-03-05T03:44:13.612Z,4.00
2023-03-05T03:45:13.623Z,7.50
2023-03-05T03:46:13.664Z,7.70
2023-03-05T03:47:13.591Z,8.20
2023-03-05T03:48:13.584Z,8.40
2023-03-05T03:49:13.569Z,8.90
2023-03-05T03:50:13.544Z,5.20
2023-03-05T03:51:13.562Z,5.90
2023-03-05T03:52:13.531Z,7.20
2023-03-05T03:53:13.502Z,4.90
2023-03-05T03:54:13.581Z,6.40
2023-03-05T03:55:13.474Z,9.80
2023-03-05T03:56:13.507Z,7.50
2023-03-05T03:57:13.444Z,7.10
2023-03-05T03:58:13.528Z,8.40
2023-03-05T03:59:13.442Z,9.30
2023-03-05T04:00:13.473Z,8.80
2023-03-05T04:01:13.457Z,10.10
2023-03-05T04:02:13.483Z,9.80
2023-03-05T04:03:13.384Z,11.20
2023-03-05T04:04:13.463Z,10.80
2023-03-05T04:05:13.384Z,11.20
2023-03-05T04:06:13.386Z,9.00
2023-03-05T04:07:13.334Z,11.20
2023-03-05T04:08:13.379Z,14.90
2023-03-05T04:09:13.328Z,10.20
2023-03-05T04:10:13.337Z,12.50
2023-03-05T04:11:13.296Z,14.40
2023-03-05T04:12:13.366Z,12.10
2023-03-05T04:13:13.305Z,11.60
2023-03-05T04:14:13.291Z,12.50
2023-03-05T04:15:13.270Z,11.60
2023-03-05T04:16:13.350Z,10.50
2023-03-05T04:17:13.245Z,12.30
2023-03-05T04:18:13.280Z,14.20
2023-03-05T04:19:13.210Z,14.20
2023-03-05T04:20:13.264Z,14.50
2023-03-05T04:21:13.187Z,15.40
2023-03-05T04:22:13.237Z,15.60
2023-03-05T04:23:13.191Z,14.00
2023-03-05T04:24:13.358Z,14.80
2023-03-05T04:25:13.155Z,15.70
2023-03-05T04:26:13.169Z,13.90
2023-03-05T04:27:13.147Z,13.90
2023-03-05T04:28:13.128Z,12.20
2023-03-05T04:29:13.142Z,12.40
2023-03-05T04:30:13.134Z,13.50
2023-03-05T04:31:13.180Z,13.80
2023-03-05T04:32:13.208Z,13.50
2023-03-05T04:33:13.061Z,16.60
2023-03-05T04:34:13.045Z,13.30
2023-03-05T04:35:13.017Z,17.60
2023-03-05T04:36:13.049Z,13.00
2023-03-05T04:37:13.019Z,13.20
2023-03-05T04:38:13.005Z,13.20
2023-03-05T04:39:13.009Z,14.10
2023-03-05T04:40:13.001Z,15.00
2023-03-05T04:41:12.962Z,13.70
2023-03-05T04:42:12.974Z,14.80
2023-03-05T04:43:12.935Z,15.10
2023-03-05T04:44:12.947Z,14.60
2023-03-05T04:45:12.905Z,16.30
2023-03-05T04:46:13.044Z,16.00
2023-03-05T04:47:12.895Z,13.50
2023-03-05T04:48:12.885Z,12.20
2023-03-05T04:49:13.043Z,14.60
2023-03-05T04:50:12.904Z,18.00
2023-03-05T04:51:12.833Z,15.90
2023-03-05T04:52:12.860Z,16.00
2023-03-05T04:53:12.819Z,16.40
2023-03-05T04:54:12.836Z,11.10
2023-03-05T04:55:12.817Z,13.40
2023-03-05T04:56:12.828Z,14.50
2023-03-05T04:57:12.784Z,14.60
2023-03-05T04:58:12.783Z,13.50
2023-03-05T04:59:12.739Z,12.90
2023-03-05T05:00:12.787Z,11.20
2023-03-05T05:01:12.735Z,15.10
2023-03-05T05:02:12.736Z,12.70
2023-03-05T05:03:13.191Z,16.90
2023-03-05T05:04:13.151Z,13.40
2023-03-05T05:05:12.683Z,13.60
2023-03-05T05:06:12.707Z,13.00
2023-03-05T05:07:12.670Z,14.40
2023-03-05T05:08:12.681Z,12.40
2023-03-05T05:09:12.644Z,11.20
2023-03-05T05:10:12.892Z,15.00
2023-03-05T05:11:12.624Z,9.80
2023-03-05T05:12:12.624Z,11.00
2023-03-05T05:13:12.612Z,13.60
2023-03-05T05:14:12.613Z,11.60
2023-03-05T05:15:12.586Z,13.60
2023-03-05T05:16:12.640Z,10.40
2023-03-05T05:17:12.547Z,10.60
2023-03-05T05:18:12.576Z,12.80
2023-03-05T05:19:12.593Z,13.50
2023-03-05T05:20:12.554Z,12.20
2023-03-05T05:21:12.507Z,9.70
2023-03-05T05:22:12.536Z,13.70
2023-03-05T05:23:12.486Z,10.00
2023-03-05T05:24:12.498Z,13.20
2023-03-05T05:25:13.083Z,9.10
2023-03-05T05:26:12.507Z,11.50
2023-03-05T05:27:12.457Z,7.80
2023-03-05T05:28:12.449Z,8.20
2023-03-05T05:29:12.422Z,9.90
2023-03-05T05:30:12.725Z,8.80
2023-03-05T05:31:12.424Z,7.20
2023-03-05T05:32:12.478Z,11.00
2023-03-05T05:33:12.365Z,8.10
2023-03-05T05:34:12.380Z,10.50
2023-03-05T05:35:12.348Z,10.70
2023-03-05T05:36:12.376Z,9.10
2023-03-05T05:37:12.329Z,9.00
2023-03-05T05:38:12.353Z,7.40
2023-03-05T05:39:12.312Z,7.40
2023-03-05T05:40:12.316Z,8.10
2023-03-05T05:41:12.310Z,5.50
2023-03-05T05:42:12.305Z,8.10
2023-03-05T05:43:12.269Z,7.40
2023-03-05T05:44:12.292Z,9.80
2023-03-05T05:45:12.330Z,8.70
2023-03-05T05:46:12.429Z,8.10
2023-03-05T05:47:12.221Z,7.80
2023-03-05T05:48:12.241Z,9.10
2023-03-05T05:49:12.194Z,9.10
2023-03-05T05:50:12.247Z,5.60
2023-03-05T05:51:12.261Z,7.10
2023-03-05T05:52:12.185Z,8.50
2023-03-05T05:53:12.153Z,7.60
2023-03-05T05:54:12.154Z,8.00
2023-03-05T05:55:12.113Z,7.00
2023-03-05T05:56:12.180Z,9.70
2023-03-05T05:57:12.132Z,11.40
2023-03-05T05:58:12.102Z,8.80
2023-03-05T05:59:12.115Z,9.70
2023-03-05T06:00:12.091Z,8.00
2023-03-05T06:01:12.052Z,9.70
2023-03-05T06:02:12.108Z,8.70
2023-03-05T06:03:12.111Z,12.20
2023-03-05T06:04:12.354Z,6.90
2023-03-05T06:05:12.012Z,7.20
2023-03-05T06:06:12.013Z,7.60
2023-03-05T06:07:11.994Z,7.90
2023-03-05T06:08:11.991Z,11.80
2023-03-05T06:09:11.964Z,8.80
2023-03-05T06:10:11.972Z,7.70
2023-03-05T06:11:12.189Z,10.40
2023-03-05T06:12:11.949Z,9.80
2023-03-05T06:13:11.931Z,10.40
2023-03-05T06:14:11.953Z,12.10
2023-03-05T06:15:11.898Z,9.10
2023-03-05T06:16:11.920Z,9.70
2023-03-05T06:17:14.838Z,13.20
2023-03-05T06:18:12.900Z,11.70
2023-03-05T06:19:11.871Z,13.50
2023-03-05T06:20:11.880Z,13.00
2023-03-05T06:21:11.821Z,13.50
2023-03-05T06:22:11.873Z,15.70
2023-03-05T06:23:11.814Z,14.60
2023-03-05T06:24:11.835Z,13.20
2023-03-05T06:25:12.090Z,16.60
2023-03-05T06:26:11.811Z,16.80
2023-03-05T06:27:11.776Z,16.30
2023-03-05T06:28:11.790Z,15.00
2023-03-05T06:29:11.736Z,18.00
2023-03-05T06:30:11.746Z,18.30
2023-03-05T06:31:12.050Z,18.10
2023-03-05T06:32:11.764Z,17.90
2023-03-05T06:33:11.706Z,17.80
2023-03-05T06:34:11.688Z,19.30
2023-03-05T06:35:11.687Z,19.10
2023-03-05T06:36:11.693Z,20.00
2023-03-05T06:37:11.656Z,17.10
2023-03-05T06:38:11.672Z,21.00
2023-03-05T06:39:11.626Z,21.20
2023-03-05T06:40:11.635Z,20.60
2023-03-05T06:41:11.610Z,20.60
2023-03-05T06:42:11.623Z,19.50
2023-03-05T06:43:11.618Z,24.70
2023-03-05T06:44:11.597Z,21.80
2023-03-05T06:45:11.567Z,22.80
2023-03-05T06:46:11.639Z,25.20
2023-03-05T06:47:11.535Z,22.40
2023-03-05T06:48:11.580Z,21.90
2023-03-05T06:49:11.521Z,22.90
2023-03-05T06:50:11.537Z,20.40
2023-03-05T06:51:11.496Z,24.40
2023-03-05T06:52:11.518Z,23.20
2023-03-05T06:53:11.484Z,23.50
2023-03-05T06:54:11.503Z,21.70
2023-03-05T06:55:11.468Z,23.70
2023-03-05T06:56:11.461Z,25.20
2023-03-05T06:57:11.446Z,23.10
2023-03-05T06:58:11.454Z,24.20
2023-03-05T06:59:11.434Z,24.60
2023-03-05T07:00:11.405Z,24.30
2023-03-05T07:01:11.440Z,23.40
2023-03-05T07:02:11.469Z,26.20
2023-03-05T07:03:11.354Z,24.80
2023-03-05T07:04:11.445Z,20.90
2023-03-05T07:05:11.534Z,22.80
2023-03-05T07:06:11.565Z,20.80
2023-03-05T07:07:11.303Z,20.90
2023-03-05T07:08:11.335Z,22.40
2023-03-05T07:09:11.292Z,25.50
2023-03-05T07:10:11.292Z,22.00
2023-03-05T07:11:11.294Z,23.60
2023-03-05T07:12:11.904Z,23.20
2023-03-05T07:13:11.273Z,23.20
2023-03-05T07:14:11.295Z,22.40
2023-03-05T07:15:11.264Z,19.90
2023-03-05T07:16:11.283Z,20.40
2023-03-05T07:17:11.210Z,19.30
2023-03-05T07:18:11.214Z,21.90
2023-03-05T07:19:11.206Z,20.20
2023-03-05T07:20:11.199Z,18.40
2023-03-05T07:21:11.165Z,16.50
2023-03-05T07:22:11.172Z,15.30
2023-03-05T07:23:11.143Z,18.00
2023-03-05T07:24:11.206Z,19.60
2023-03-05T07:25:11.103Z,15.10
2023-03-05T07:26:11.415Z,17.70
2023-03-05T07:27:11.592Z,14.90
2023-03-05T07:28:11.109Z,17.00
2023-03-05T07:29:11.126Z,17.40
2023-03-05T07:30:11.102Z,15.90
2023-03-05T07:31:11.128Z,14.00
2023-03-05T07:32:11.092Z,15.20
2023-03-05T07:33:11.071Z,13.40
2023-03-05T07:34:11.033Z,13.10
2023-03-05T07:35:11.007Z,12.90
2023-03-05T07:36:11.028Z,15.10
2023-03-05T07:37:10.991Z,17.10
2023-03-05T07:38:11.014Z,11.30
2023-03-05T07:39:10.959Z,10.90
2023-03-05T07:40:11.007Z,14.50
2023-03-05T07:41:10.933Z,14.80
2023-03-05T07:42:11.076Z,15.60
2023-03-05T07:43:10.909Z,17.20
2023-03-05T07:44:10.954Z,11.80
2023-03-05T07:45:10.886Z,10.10
2023-03-05T07:46:10.925Z,14.00
2023-03-05T07:47:10.867Z,13.00
2023-03-05T07:48:10.887Z,10.80
2023-03-05T07:49:10.840Z,15.50
2023-03-05T07:50:11.808Z,14.70
2023-03-05T07:51:10.854Z,11.50
2023-03-05T07:52:10.824Z,9.70
2023-03-05T07:53:10.975Z,11.10
2023-03-05T07:54:10.833Z,10.50
2023-03-05T07:55:10.785Z,12.40
2023-03-05T07:56:10.812Z,8.30
2023-03-05T07:57:10.754Z,10.40
2023-03-05T07:58:10.786Z,8.30
2023-03-05T07:59:10.749Z,9.00
2023-03-05T08:00:10.760Z,9.20
2023-03-05T08:01:13.078Z,9.00
2023-03-05T08:02:10.780Z,6.80
2023-03-05T08:03:10.679Z,9.70
2023-03-05T08:04:10.823Z,9.00
2023-03-05T08:05:10.670Z,9.10
2023-03-05T08:06:10.677Z,10.00
2023-03-05T08:07:11.348Z,8.40
2023-03-05T08:08:10.637Z,8.00
2023-03-05T08:09:10.672Z,9.30
2023-03-05T08:10:10.769Z,9.50
2023-03-05T08:11:10.635Z,7.90
2023-03-05T08:12:10.583Z,6.30
2023-03-05T08:13:10.600Z,8.40
2023-03-05T08:14:10.630Z,6.60
2023-03-05T08:15:10.590Z,8.60
2023-03-05T08:16:10.655Z,6.70
2023-03-05T08:17:10.548Z,8.20
2023-03-05T08:18:10.528Z,5.70
2023-03-05T08:19:10.564Z,7.70
2023-03-05T08:20:10.539Z,9.20
2023-03-05T08:21:10.550Z,6.70
2023-03-05T08:22:10.477Z,6.00
2023-03-05T08:23:10.503Z,8.10
2023-03-05T08:24:10.459Z,6.70
2023-03-05T08:25:10.485Z,5.90
2023-03-05T08:26:10.415Z,5.70
2023-03-05T08:27:10.546Z,5.10
2023-03-05T08:28:10.609Z,4.30
2023-03-05T08:29:10.416Z,7.70
2023-03-05T08:30:10.409Z,5.00
2023-03-05T08:31:10.426Z,5.50
2023-03-05T08:32:10.419Z,4.10
2023-03-05T08:33:10.374Z,5.30
2023-03-05T08:34:10.430Z,5.80
2023-03-05T08:35:10.337Z,4.80
2023-03-05T08:36:10.351Z,4.20
2023-03-05T08:37:10.330Z,3.70
2023-03-05T08:38:10.298Z,6.10
2023-03-05T08:39:10.283Z,3.50
2023-03-05T08:40:10.280Z,5.00
2023-03-05T08:41:10.272Z,5.10
2023-03-05T08:42:10.236Z,3.50
2023-03-05T08:43:10.276Z,7.90
2023-03-05T08:44:10.262Z,4.00
2023-03-05T08:45:10.284Z,5.40
2023-03-05T08:46:10.232Z,5.70
2023-03-05T08:47:10.222Z,5.60
2023-03-05T08:48:10.204Z,4.00
2023-03-05T08:49:10.221Z,5.20
2023-03-05T08:50:10.153Z,4.80
2023-03-05T08:51:10.165Z,5.30
2023-03-05T08:52:10.126Z,3.10
2023-03-05T08:53:10.150Z,2.70
2023-03-05T08:54:10.466Z,4.70
2023-03-05T08:55:10.174Z,4.00
2023-03-05T08:56:10.090Z,3.80
2023-03-05T08:57:10.087Z,3.80
2023-03-05T08:58:10.055Z,3.50
2023-03-05T08:59:11.997Z,5.80
2023-03-05T09:00:10.071Z,5.20
2023-03-05T09:01:10.052Z,5.80
2023-03-05T09:02:10.111Z,4.10
2023-03-05T09:03:10.064Z,3.30
2023-03-05T09:04:10.050Z,5.60
2023-03-05T09:05:10.014Z,3.90
2023-03-05T09:06:09.974Z,5.10
2023-03-05T09:07:09.982Z,4.90
2023-03-05T09:08:09.960Z,3.90
2023-03-05T09:09:09.958Z,5.50
2023-03-05T09:10:09.922Z,4.50
2023-03-05T09:11:09.960Z,5.40
2023-03-05T09:12:12.159Z,3.80
2023-03-05T09:13:09.918Z,5.30
2023-03-05T09:14:09.891Z,5.40
2023-03-05T09:15:10.396Z,2.40
2023-03-05T09:16:09.911Z,4.50
2023-03-05T09:17:09.864Z,6.10
2023-03-05T09:18:09.822Z,6.10
2023-03-05T09:19:09.852Z,6.20
2023-03-05T09:20:09.807Z,5.00
2023-03-05T09:21:09.833Z,5.60
2023-03-05T09:22:09.800Z,6.00
2023-03-05T09:23:09.785Z,6.20
2023-03-05T09:24:10.460Z,6.10
2023-03-05T09:25:09.790Z,6.30
2023-03-05T09:26:09.864Z,6.90
2023-03-05T09:27:09.749Z,6.00
2023-03-05T09:28:09.719Z,7.70
2023-03-05T09:29:09.987Z,8.00
2023-03-05T09:30:09.929Z,7.40
2023-03-05T09:31:10.000Z,5.00
2023-03-05T09:32:09.817Z,6.20
2023-03-05T09:33:09.698Z,8.50
2023-03-05T09:34:09.655Z,8.10
2023-03-05T09:35:10.230Z,7.10
2023-03-05T09:36:09.818Z,6.60
2023-03-05T09:37:09.676Z,8.80
2023-03-05T09:38:09.599Z,6.30
2023-03-05T09:39:09.611Z,5.80
2023-03-05T09:40:09.584Z,6.90
2023-03-05T09:41:09.600Z,7.70
2023-03-05T09:42:10.335Z,6.80
2023-03-05T09:43:09.605Z,6.90
2023-03-05T09:44:09.534Z,7.30
2023-03-05T09:45:09.558Z,7.20
2023-03-05T09:46:09.553Z,5.30
2023-03-05T09:47:09.571Z,6.30
2023-03-05T09:48:09.520Z,5.20
2023-03-05T09:49:09.618Z,6.90
2023-03-05T09:50:09.467Z,5.20
2023-03-05T09:51:09.505Z,7.80
2023-03-05T09:52:09.446Z,9.50
2023-03-05T09:53:09.447Z,5.00
2023-03-05T09:54:09.417Z,5.80
2023-03-05T09:55:09.462Z,5.30
2023-03-05T09:56:09.482Z,5.20
2023-03-05T09:57:09.467Z,6.30
2023-03-05T09:58:09.381Z,5.10
2023-03-05T09:59:09.407Z,4.40
2023-03-05T10:00:09.386Z,5.60
2023-03-05T10:01:09.397Z,5.90
2023-03-05T10:02:09.328Z,6.70
2023-03-05T10:03:09.394Z,7.50
2023-03-05T10:04:09.407Z,6.00
2023-03-05T10:05:09.327Z,7.00
2023-03-05T10:06:09.288Z,5.80
2023-03-05T10:07:09.374Z,7.90
2023-03-05T10:08:09.267Z,5.20
2023-03-05T10:09:09.280Z,5.40
2023-03-05T10:10:09.277Z,6.20
2023-03-05T10:11:09.271Z,5.50
2023-03-05T10:12:09.226Z,6.90
2023-03-05T10:13:09.264Z,5.40
2023-03-05T10:14:09.197Z,6.20
2023-03-05T10:15:09.230Z,4.40
2023-03-05T10:16:09.240Z,7.50
2023-03-05T10:17:09.202Z,5.70
2023-03-05T10:18:09.167Z,5.70
2023-03-05T10:19:09.176Z,4.70
2023-03-05T10:20:09.162Z,5.00
2023-03-05T10:21:09.180Z,6.30
2023-03-05T10:22:09.116Z,5.10
2023-03-05T10:23:09.195Z,5.40
2023-03-05T10:24:09.096Z,4.90
2023-03-05T10:25:09.136Z,8.40
2023-03-05T10:26:09.174Z,5.00
2023-03-05T10:27:09.436Z,4.20
2023-03-05T10:28:09.036Z,3.50
2023-03-05T10:29:09.055Z,5.40
2023-03-05T10:30:09.025Z,5.40
2023-03-05T10:31:09.080Z,5.00
2023-03-05T10:32:09.078Z,4.60
2023-03-05T10:33:09.020Z,4.80
2023-03-05T10:34:08.987Z,4.40
2023-03-05T10:35:09.017Z,5.90
2023-03-05T10:36:08.956Z,4.20
2023-03-05T10:37:09.060Z,3.50
2023-03-05T10:38:09.126Z,6.70
2023-03-05T10:39:08.952Z,6.70
2023-03-05T10:40:08.918Z,8.60
2023-03-05T10:41:08.926Z,6.90
2023-03-05T10:42:08.994Z,7.90
2023-03-05T10:43:08.920Z,4.30
2023-03-05T10:44:08.894Z,7.40
2023-03-05T10:45:08.875Z,8.90
2023-03-05T10:46:08.857Z,7.10
2023-03-05T10:47:08.875Z,5.10
2023-03-05T10:48:08.844Z,5.60
2023-03-05T10:49:08.837Z,7.00
2023-03-05T10:50:08.804Z,6.50
2023-03-05T10:51:09.040Z,7.20
2023-03-05T10:52:08.816Z,9.80
2023-03-05T10:53:08.784Z,6.30
2023-03-05T10:54:08.753Z,4.70
2023-03-05T10:55:08.791Z,5.90
2023-03-05T10:56:08.742Z,5.70
2023-03-05T10:57:08.763Z,6.70
2023-03-05T10:58:08.736Z,5.20
2023-03-05T10:59:08.744Z,7.60
2023-03-05T11:00:08.686Z,8.40
2023-03-05T11:01:08.793Z,8.10
2023-03-05T11:02:08.903Z,7.70
2023-03-05T11:03:08.691Z,7.60
2023-03-05T11:04:09.102Z,7.90
2023-03-05T11:05:08.657Z,8.60
2023-03-05T11:06:08.657Z,9.20
2023-03-05T11:07:08.629Z,5.90
2023-03-05T11:08:08.630Z,5.70
2023-03-05T11:09:08.613Z,7.80
2023-03-05T11:10:08.642Z,6.70
2023-03-05T11:11:08.619Z,5.00
2023-03-05T11:12:08.566Z,7.90
2023-03-05T11:13:08.613Z,6.20
2023-03-05T11:14:08.548Z,6.30
2023-03-05T11:15:08.534Z,6.20
2023-03-05T11:16:08.865Z,5.50
2023-03-05T11:17:08.537Z,6.30
2023-03-05T11:18:08.512Z,8.70
2023-03-05T11:19:08.486Z,9.60
2023-03-05T11:20:08.476Z,7.20
2023-03-05T11:21:08.472Z,10.70
2023-03-05T11:22:08.716Z,4.30
2023-03-05T11:23:08.485Z,6.50
2023-03-05T11:24:08.424Z,8.90
2023-03-05T11:25:08.429Z,7.00
2023-03-05T11:26:08.378Z,8.40
2023-03-05T11:27:08.455Z,7.20
2023-03-05T11:28:08.384Z,6.90
2023-03-05T11:29:08.401Z,8.00
2023-03-05T11:30:08.354Z,7.50
2023-03-05T11:31:08.464Z,8.90
2023-03-05T11:32:08.380Z,5.90
2023-03-05T11:33:10.255Z,7.70
2023-03-05T11:34:08.313Z,7.30
2023-03-05T11:35:08.332Z,5.60
2023-03-05T11:36:08.274Z,6.50
2023-03-05T11:37:08.303Z,7.90
2023-03-05T11:38:08.283Z,7.50
2023-03-05T11:39:08.284Z,6.90
2023-03-05T11:40:08.233Z,7.70
2023-03-05T11:41:08.258Z,6.20
2023-03-05T11:42:08.254Z,7.10
2023-03-05T11:43:08.213Z,7.70
2023-03-05T11:44:08.187Z,6.10
2023-03-05T11:45:08.243Z,7.70
2023-03-05T11:46:08.185Z,6.40
2023-03-05T11:47:08.184Z,6.90
2023-03-05T11:48:08.134Z,6.10
2023-03-05T11:49:08.165Z,4.20
2023-03-05T11:50:08.133Z,6.00
2023-03-05T11:51:08.183Z,6.00
2023-03-05T11:52:08.327Z,6.20
2023-03-05T11:53:08.331Z,9.10
2023-03-05T11:54:08.105Z,5.70
2023-03-05T11:55:08.098Z,8.20
2023-03-05T11:56:08.074Z,4.30
2023-03-05T11:57:08.081Z,6.10
2023-03-05T11:58:08.043Z,5.20
2023-03-05T11:59:08.152Z,8.40
2023-03-05T12:00:08.046Z,6.00
2023-03-05T12:01:08.034Z,5.90
2023-03-05T12:02:08.032Z,6.50
2023-03-05T12:03:08.079Z,5.60
2023-03-05T12:04:08.066Z,6.70
2023-03-05T12:05:07.987Z,6.10
2023-03-05T12:06:07.968Z,4.90
2023-03-05T12:07:07.982Z,6.30
2023-03-05T12:08:07.941Z,5.60
2023-03-05T12:09:07.940Z,7.90
2023-03-05T12:10:07.960Z,5.70
2023-03-05T12:11:07.934Z,7.10
2023-03-05T12:12:07.954Z,4.90
2023-03-05T12:13:08.379Z,5.50
2023-03-05T12:14:07.871Z,4.10
2023-03-05T12:15:07.882Z,5.70
2023-03-05T12:16:08.064Z,6.70
2023-03-05T12:17:07.880Z,5.90
2023-03-05T12:18:07.825Z,4.40
2023-03-05T12:19:08.613Z,6.40
2023-03-05T12:20:07.877Z,7.70
2023-03-05T12:21:07.856Z,8.00
2023-03-05T12:22:07.771Z,5.50
2023-03-05T12:23:07.995Z,6.50
2023-03-05T12:24:07.782Z,6.30
2023-03-05T12:25:07.764Z,6.90
2023-03-05T12:26:07.941Z,7.50
2023-03-05T12:27:07.820Z,7.30
2023-03-05T12:28:07.770Z,7.40
2023-03-05T12:29:07.713Z,6.30
2023-03-05T12:30:07.726Z,5.40
2023-03-05T12:31:07.712Z,6.10
2023-03-05T12:32:07.733Z,5.70
2023-03-05T12:33:07.679Z,6.60
2023-03-05T12:34:07.691Z,5.80
2023-03-05T12:35:07.640Z,5.60
2023-03-05T12:36:07.689Z,7.10
2023-03-05T12:37:07.624Z,6.10
2023-03-05T12:38:25.565Z,6.30
2023-03-05T12:39:08.739Z,6.10
2023-03-05T12:40:07.750Z,6.40
2023-03-05T12:41:07.549Z,6.40
2023-03-05T12:42:07.603Z,7.00
2023-03-05T12:43:07.676Z,7.10
2023-03-05T12:44:07.754Z,7.20
2023-03-05T12:45:07.509Z,6.70
2023-03-05T12:46:07.538Z,9.10
2023-03-05T12:47:07.505Z,6.50
2023-03-05T12:48:07.492Z,7.70
2023-03-05T12:49:07.489Z,7.80
2023-03-05T12:50:07.496Z,8.40
2023-03-05T12:51:07.502Z,6.60
2023-03-05T12:52:07.473Z,7.60
2023-03-05T12:53:07.416Z,6.00
2023-03-05T12:54:07.533Z,6.10
2023-03-05T12:55:07.426Z,8.10
2023-03-05T12:56:07.399Z,8.70
2023-03-05T12:57:07.378Z,6.60
2023-03-05T12:58:07.404Z,6.90
2023-03-05T12:59:07.389Z,7.40
2023-03-05T13:00:07.362Z,8.10
2023-03-05T13:01:07.375Z,6.30
2023-03-05T13:02:07.348Z,5.70
2023-03-05T13:03:07.291Z,7.60
2023-03-05T13:04:07.310Z,9.30
2023-03-05T13:05:07.266Z,6.50
2023-03-05T13:06:07.274Z,7.90
2023-03-05T13:07:07.283Z,7.20
2023-03-05T13:08:07.273Z,6.90
2023-03-05T13:09:07.212Z,6.60
2023-03-05T13:10:07.231Z,8.00
2023-03-05T13:11:07.221Z,7.10
2023-03-05T13:12:07.352Z,6.70